Time;durP1;ratioP1;P1;durP2;ratioP2;P2;SDS_P1;SDS_P2;PMS_P1;PMS_P2;Temp;Humidity;BMP_temperature;BMP_pressure;BME280_temperature;BME280_humidity;BME280_pressure;Samples;Min_cycle;Max_cycle;Signal;HPM_P1;HPM_P2
2022/12/17 13:06:38;;;;;;;67.65;39.03;;;1.30;99.90;;;;;;5038118;28;20525;-74
2022/12/17 13:09:15;;;;;;;63.38;39.63;;;1.30;99.90;;;;;;5043478;28;20147;-74
2022/12/17 13:11:46;;;;;;;54.20;34.72;;;1.40;99.90;;;;;;5039042;28;20657;-74
2022/12/17 13:14:18;;;;;;;59.42;35.15;;;2.20;99.90;;;;;;5044299;28;20997;-74
2022/12/17 13:16:46;;;;;;;60.53;38.05;;;2.30;99.90;;;;;;5043230;28;20106;-78
2022/12/17 13:19:31;;;;;;;62.28;37.45;;;2.20;99.90;;;;;;5046407;28;20040;-73
2022/12/17 13:22:29;;;;;;;60.85;34.72;;;1.60;99.90;;;;;;5046379;28;20052;-74
2022/12/17 13:25:22;;;;;;;55.13;34.88;;;2.00;99.90;;;;;;5043745;28;20126;-74
2022/12/17 13:27:49;;;;;;;62.53;37.58;;;1.60;99.90;;;;;;5047328;28;20048;-74
2022/12/17 13:30:19;;;;;;;56.47;35.75;;;1.50;99.90;;;;;;5045003;28;20442;-75
2022/12/17 13:32:57;;;;;;;57.78;34.67;;;2.60;99.90;;;;;;5050755;28;20091;-74
2022/12/17 13:35:35;;;;;;;61.17;38.15;;;1.50;99.90;;;;;;5050807;28;20057;-73
2022/12/17 13:38:13;;;;;;;54.13;32.08;;;1.50;99.90;;;;;;5053506;28;20044;-73
2022/12/17 13:40:47;;;;;;;60.60;34.85;;;3.10;99.90;;;;;;5048480;28;20483;-74
2022/12/17 13:43:18;;;;;;;60.30;34.72;;;3.10;99.90;;;;;;5056260;28;20121;-74
2022/12/17 13:45:44;;;;;;;55.03;33.72;;;3.00;99.90;;;;;;5045356;28;20051;-75
2022/12/17 13:48:20;;;;;;;56.40;35.35;;;1.60;99.90;;;;;;5051778;28;20310;-74
2022/12/17 13:50:54;;;;;;;60.10;37.45;;;1.60;99.90;;;;;;5039192;28;20069;-74
2022/12/17 13:53:20;;;;;;;60.35;36.15;;;1.50;99.90;;;;;;5037136;28;20065;-74
2022/12/17 13:55:53;;;;;;;58.72;34.17;;;1.40;99.90;;;;;;5035514;28;20385;-74
2022/12/17 13:58:33;;;;;;;61.08;37.65;;;1.40;99.90;;;;;;5036712;28;20143;-74
2022/12/17 14:01:11;;;;;;;58.30;35.38;;;2.00;99.90;;;;;;5042136;28;20543;-74
2022/12/17 14:03:37;;;;;;;59.47;35.25;;;1.50;99.90;;;;;;5047803;28;20132;-74
2022/12/17 14:06:07;;;;;;;59.55;36.50;;;1.30;99.90;;;;;;5055109;28;20045;-73
2022/12/17 14:08:33;;;;;;;64.82;36.50;;;1.20;99.90;;;;;;5054819;28;20040;-73
2022/12/17 14:13:47;;;;;;;60.28;38.58;;;2.40;99.90;;;;;;5046088;28;20060;-75
2022/12/17 14:16:16;;;;;;;57.70;36.33;;;1.70;99.90;;;;;;5047783;28;20113;-74
2022/12/17 14:18:46;;;;;;;61.65;34.97;;;1.30;99.90;;;;;;5043537;28;20842;-73
2022/12/17 14:21:12;;;;;;;66.63;38.85;;;1.50;99.90;;;;;;5047446;28;20048;-74
2022/12/17 14:23:39;;;;;;;65.32;37.53;;;1.20;99.90;;;;;;5051338;28;20129;-74
2022/12/17 14:26:09;;;;;;;53.45;35.67;;;2.00;99.90;;;;;;5037826;28;20100;-73
2022/12/17 14:28:43;;;;;;;64.57;38.78;;;1.00;99.90;;;;;;5036735;28;20045;-73
2022/12/17 14:31:23;;;;;;;60.50;35.40;;;0.90;99.90;;;;;;5047812;28;20041;-75
2022/12/17 14:34:18;;;;;;;52.95;33.38;;;1.60;99.90;;;;;;5038159;28;20040;-74
2022/12/17 14:36:45;;;;;;;60.67;34.63;;;1.00;99.90;;;;;;5030546;28;20057;-74
2022/12/17 14:39:19;;;;;;;59.92;36.97;;;0.80;99.90;;;;;;5039572;28;20428;-76
2022/12/17 14:44:30;;;;;;;59.60;36.83;;;0.70;99.90;;;;;;5042090;28;20125;-73
2022/12/17 14:47:26;;;;;;;57.83;35.40;;;1.60;99.90;;;;;;5041185;28;20060;-74
2022/12/17 14:49:56;;;;;;;59.20;35.20;;;0.60;99.90;;;;;;5038446;28;20052;-75
2022/12/17 14:52:25;;;;;;;61.42;35.53;;;0.50;99.90;;;;;;5040858;28;20134;-75
2022/12/17 14:54:51;;;;;;;60.78;36.88;;;0.50;99.90;;;;;;5048366;28;20144;-74
2022/12/17 14:57:21;;;;;;;62.35;36.75;;;0.40;99.90;;;;;;5040285;28;20076;-74
2022/12/17 14:59:47;;;;;;;61.08;35.10;;;1.40;99.90;;;;;;5038079;28;20045;-75
2022/12/17 15:02:13;;;;;;;61.20;36.88;;;0.30;99.90;;;;;;5047776;28;20045;-75
2022/12/17 15:04:39;;;;;;;59.47;36.40;;;0.30;99.90;;;;;;5040839;28;20055;-74
2022/12/17 15:07:06;;;;;;;67.57;40.20;;;1.60;99.90;;;;;;5035622;28;20063;-74
2022/12/17 15:09:39;;;;;;;63.95;38.28;;;0.40;99.90;;;;;;5045606;28;20160;-74
2022/12/17 15:12:05;;;;;;;62.55;37.28;;;0.30;99.90;;;;;;5042788;28;20044;-74
2022/12/17 15:14:30;;;;;;;62.70;37.13;;;0.30;99.90;;;;;;5042708;28;20075;-74
2022/12/17 15:16:57;;;;;;;62.08;36.20;;;0.30;99.90;;;;;;5053054;28;20125;-74
2022/12/17 15:19:23;;;;;;;57.67;34.80;;;0.50;99.90;;;;;;5044748;28;20048;-73
2022/12/17 15:21:50;;;;;;;69.75;37.25;;;0.30;99.90;;;;;;5043119;28;20639;-75
2022/12/17 15:24:18;;;;;;;64.93;36.30;;;0.20;99.90;;;;;;5048293;28;20053;-74
2022/12/17 15:26:44;;;;;;;65.95;35.97;;;0.20;99.90;;;;;;5051167;28;20445;-75
2022/12/17 15:29:11;;;;;;;61.47;34.30;;;1.50;99.90;;;;;;5039099;28;20048;-75
2022/12/17 15:31:36;;;;;;;65.47;35.08;;;0.20;99.90;;;;;;5040787;28;20484;-73
2022/12/17 15:34:02;;;;;;;59.72;34.30;;;1.40;99.90;;;;;;5051877;28;20048;-74
2022/12/17 15:36:30;;;;;;;67.65;36.40;;;0.70;99.90;;;;;;5043918;28;20049;-74
2022/12/17 15:38:56;;;;;;;61.60;35.17;;;0.20;99.90;;;;;;5058707;28;20072;-74
2022/12/17 15:44:06;;;;;;;55.42;33.95;;;0.10;99.90;;;;;;5044487;28;20052;-76
2022/12/17 15:46:32;;;;;;;59.50;35.75;;;0.90;99.90;;;;;;5050647;28;20710;-74
2022/12/17 15:48:58;;;;;;;63.95;35.85;;;0.70;99.90;;;;;;5046548;28;20086;-73
2022/12/17 15:51:23;;;;;;;59.25;32.95;;;0.00;99.90;;;;;;5055720;28;20059;-74
2022/12/17 15:53:50;;;;;;;63.88;34.80;;;0.70;99.90;;;;;;5050575;28;20056;-74
2022/12/17 15:56:24;;;;;;;55.97;32.72;;;0.50;99.90;;;;;;5047166;28;20130;-75
2022/12/17 15:58:50;;;;;;;63.10;34.97;;;-0.10;99.90;;;;;;5040747;28;20049;-74
2022/12/17 16:01:16;;;;;;;58.55;33.78;;;-0.10;99.90;;;;;;5039828;28;20784;-74
2022/12/17 16:03:42;;;;;;;66.90;36.42;;;0.90;99.90;;;;;;5039363;28;20049;-74
2022/12/17 16:06:08;;;;;;;67.78;34.83;;;0.00;99.90;;;;;;5046757;28;20090;-75
2022/12/17 16:08:37;;;;;;;67.18;36.65;;;0.70;99.90;;;;;;5057012;28;20091;-74
2022/12/17 16:11:11;;;;;;;59.88;33.42;;;0.10;99.90;;;;;;5051288;28;20040;-75
2022/12/17 16:13:37;;;;;;;62.88;36.33;;;0.40;99.90;;;;;;5046508;28;20056;-73
2022/12/17 16:16:04;;;;;;;55.35;34.53;;;0.20;99.90;;;;;;5045864;28;20037;-73
2022/12/17 16:18:30;;;;;;;76.38;35.88;;;0.10;99.90;;;;;;5054079;28;20109;-74
2022/12/17 16:21:02;;;;;;;63.70;36.25;;;1.60;99.90;;;;;;5042411;28;20037;-74
2022/12/17 16:23:28;;;;;;;65.38;37.50;;;0.00;99.90;;;;;;5049322;28;20045;-75
2022/12/17 16:26:01;;;;;;;68.78;34.47;;;0.00;99.90;;;;;;5046388;28;20094;-75
2022/12/17 16:28:28;;;;;;;65.07;35.67;;;0.60;99.90;;;;;;5052075;28;20040;-76
2022/12/17 16:31:05;;;;;;;60.95;36.45;;;0.90;99.90;;;;;;5053420;28;20044;-74
2022/12/17 16:33:36;;;;;;;66.05;39.38;;;-0.10;99.90;;;;;;5051732;28;20075;-75
2022/12/17 16:36:03;;;;;;;68.55;37.33;;;1.40;99.90;;;;;;5049823;28;20048;-73
2022/12/17 16:38:29;;;;;;;64.80;36.75;;;-0.20;99.90;;;;;;5051884;28;20044;-74
2022/12/17 16:40:55;;;;;;;60.30;33.95;;;0.80;99.90;;;;;;5048079;28;20070;-74
2022/12/17 16:43:21;;;;;;;70.63;36.83;;;-0.20;99.90;;;;;;5044039;28;20060;-74
2022/12/17 16:45:49;;;;;;;64.15;36.05;;;-0.20;99.90;;;;;;5053116;28;20852;-75
2022/12/17 16:48:16;;;;;;;62.10;36.88;;;-0.20;99.90;;;;;;5055927;28;20048;-75
2022/12/17 16:50:43;;;;;;;56.42;32.45;;;0.20;99.90;;;;;;5043150;28;20505;-75
2022/12/17 16:53:09;;;;;;;59.50;34.03;;;1.30;99.90;;;;;;5041928;28;20056;-76
2022/12/17 16:55:46;;;;;;;59.65;33.50;;;-0.10;99.90;;;;;;5043931;28;20053;-73
2022/12/17 16:58:13;;;;;;;56.60;32.88;;;-0.40;99.90;;;;;;5054944;28;20055;-75
2022/12/17 17:00:39;;;;;;;57.70;32.33;;;-0.40;99.90;;;;;;5041392;28;20067;-74
2022/12/17 17:03:06;;;;;;;64.60;34.30;;;0.20;99.90;;;;;;5044339;28;20487;-74
2022/12/17 17:05:36;;;;;;;63.42;33.72;;;0.70;99.90;;;;;;5048162;28;20892;-74
2022/12/17 17:08:02;;;;;;;66.10;34.60;;;-0.50;99.90;;;;;;5048046;28;20060;-73
2022/12/17 17:10:28;;;;;;;61.17;34.65;;;0.50;99.90;;;;;;5046663;28;20048;-73
2022/12/17 17:12:54;;;;;;;62.55;35.88;;;-0.60;99.90;;;;;;5052653;28;20041;-75
2022/12/17 17:15:23;;;;;;;72.65;36.53;;;-0.60;99.90;;;;;;5053801;28;20052;-74
2022/12/17 17:17:50;;;;;;;60.53;34.42;;;1.30;99.90;;;;;;5038357;28;20056;-72
2022/12/17 17:20:16;;;;;;;64.93;36.42;;;-0.50;99.90;;;;;;5059922;28;20052;-73
2022/12/17 17:22:41;;;;;;;61.85;34.70;;;-0.50;99.90;;;;;;5053014;28;20122;-73
2022/12/17 17:25:07;;;;;;;58.72;32.17;;;-0.60;99.90;;;;;;5051072;28;20045;-73
2022/12/17 17:27:33;;;;;;;64.35;34.75;;;0.90;99.90;;;;;;5038229;28;20487;-74
2022/12/17 17:29:58;;;;;;;56.08;32.70;;;0.30;99.90;;;;;;5057236;28;20070;-72
2022/12/17 17:32:24;;;;;;;57.85;34.78;;;-0.60;99.90;;;;;;5053522;28;20462;-74
2022/12/17 17:34:50;;;;;;;56.78;33.22;;;0.40;99.90;;;;;;5047582;28;20795;-74
2022/12/17 17:37:17;;;;;;;60.30;33.65;;;-0.60;99.90;;;;;;5038345;28;20044;-74
2022/12/17 17:39:42;;;;;;;52.83;33.17;;;0.20;99.90;;;;;;5048516;28;20064;-74
2022/12/17 17:42:08;;;;;;;58.25;34.47;;;-0.60;99.90;;;;;;5034452;28;20041;-74
2022/12/17 17:44:34;;;;;;;65.18;35.97;;;0.50;99.90;;;;;;5039914;28;20115;-74
2022/12/17 17:47:00;;;;;;;65.20;36.53;;;0.00;99.90;;;;;;5051904;28;20044;-74
2022/12/17 17:49:26;;;;;;;61.97;34.97;;;-0.50;99.90;;;;;;5055938;28;20048;-74
2022/12/17 17:51:51;;;;;;;61.70;34.45;;;-0.50;99.90;;;;;;5039182;28;20734;-74
2022/12/17 17:54:17;;;;;;;60.63;35.67;;;-0.20;99.90;;;;;;5048984;28;20475;-74
2022/12/17 17:56:43;;;;;;;61.53;34.22;;;-1.90;99.90;;;;;;5042523;28;20048;-74
2022/12/17 17:59:10;;;;;;;63.55;34.88;;;-0.70;99.90;;;;;;5045922;28;20056;-74
2022/12/17 18:01:38;;;;;;;56.78;30.13;;;-0.60;99.90;;;;;;5048398;28;20194;-75
2022/12/17 18:04:06;;;;;;;68.13;37.65;;;1.20;99.90;;;;;;5036927;28;20075;-74
2022/12/17 18:06:36;;;;;;;63.15;37.28;;;-0.50;99.90;;;;;;5043674;28;20080;-72
2022/12/17 18:09:02;;;;;;;72.90;39.45;;;-0.10;99.90;;;;;;5040757;28;20983;-74
2022/12/17 18:11:30;;;;;;;63.15;35.67;;;-0.50;99.90;;;;;;5048646;28;20174;-73
2022/12/17 18:13:56;;;;;;;71.35;35.38;;;-0.50;99.90;;;;;;5048655;28;20044;-74
2022/12/17 18:16:27;;;;;;;61.42;33.22;;;-0.60;99.90;;;;;;5038010;28;20107;-73
2022/12/17 18:18:59;;;;;;;62.58;37.25;;;-0.60;99.90;;;;;;5046188;28;20584;-73
2022/12/17 18:21:26;;;;;;;66.43;35.60;;;-0.60;99.90;;;;;;5040052;28;20067;-73
2022/12/17 18:24:01;;;;;;;64.45;33.90;;;0.40;99.90;;;;;;5045705;28;20060;-73
2022/12/17 18:26:29;;;;;;;58.10;33.17;;;-0.60;99.90;;;;;;5037093;28;20053;-74
2022/12/17 18:28:57;;;;;;;63.80;37.10;;;-0.70;99.90;;;;;;5048018;28;20066;-74
2022/12/17 18:31:25;;;;;;;60.25;35.22;;;-0.10;99.90;;;;;;5053085;28;20041;-73
2022/12/17 18:34:01;;;;;;;69.95;36.28;;;-0.70;99.90;;;;;;5049795;28;20067;-74
2022/12/17 18:36:36;;;;;;;58.45;35.15;;;0.30;99.90;;;;;;5049568;28;20684;-74
2022/12/17 18:39:11;;;;;;;64.10;38.58;;;-0.60;99.90;;;;;;5045951;28;20142;-73
2022/12/17 18:44:24;;;;;;;65.47;35.20;;;-0.60;99.90;;;;;;5048869;28;20371;-72
2022/12/17 18:46:52;;;;;;;62.83;36.85;;;-0.60;99.90;;;;;;5049762;28;20048;-74
2022/12/17 18:49:20;;;;;;;67.88;38.83;;;-0.50;99.90;;;;;;5047377;28;20048;-74
2022/12/17 18:51:48;;;;;;;68.88;38.97;;;-0.50;99.90;;;;;;5063483;28;20044;-75
2022/12/17 18:54:17;;;;;;;63.92;37.75;;;1.20;99.90;;;;;;5047069;28;20136;-73
2022/12/17 18:56:43;;;;;;;71.70;41.33;;;-0.50;99.90;;;;;;5039976;28;20060;-74
2022/12/17 18:59:12;;;;;;;67.00;38.40;;;0.80;99.90;;;;;;5047211;28;20036;-74
2022/12/17 19:01:38;;;;;;;62.25;37.85;;;0.30;99.90;;;;;;5042290;28;20113;-74
2022/12/17 19:04:06;;;;;;;73.47;40.10;;;-0.60;99.90;;;;;;5040618;28;20049;-72
2022/12/17 19:06:33;;;;;;;63.70;37.60;;;0.30;99.90;;;;;;5044968;28;20048;-74
2022/12/17 19:08:59;;;;;;;63.53;35.25;;;-0.60;99.90;;;;;;5043571;28;20055;-72
2022/12/17 19:11:25;;;;;;;65.10;36.85;;;0.80;99.90;;;;;;5049741;28;20045;-73
2022/12/17 19:13:51;;;;;;;69.07;39.88;;;-0.70;99.90;;;;;;5053890;28;20405;-74
2022/12/17 19:16:20;;;;;;;62.67;36.97;;;-0.80;99.90;;;;;;5048868;28;20049;-73
2022/12/17 19:18:50;;;;;;;69.97;40.33;;;-0.10;99.90;;;;;;5043561;28;20055;-74
2022/12/17 19:21:16;;;;;;;57.88;37.13;;;-0.80;99.90;;;;;;5044482;28;20061;-74
2022/12/17 19:23:42;;;;;;;67.00;39.33;;;-0.80;99.90;;;;;;5043106;28;20094;-73
2022/12/17 19:26:19;;;;;;;62.22;39.97;;;-0.80;99.90;;;;;;5037635;28;20474;-73
2022/12/17 19:28:47;;;;;;;66.82;42.85;;;0.00;99.90;;;;;;5050072;28;20062;-73
2022/12/17 19:31:14;;;;;;;75.50;43.45;;;-0.90;99.90;;;;;;5041940;28;20106;-73
2022/12/17 19:33:40;;;;;;;64.32;41.47;;;-0.90;99.90;;;;;;5056874;28;20044;-73
2022/12/17 19:36:10;;;;;;;65.25;38.33;;;-0.90;99.90;;;;;;5051451;28;20527;-74
2022/12/17 19:38:35;;;;;;;60.67;38.90;;;-0.90;99.90;;;;;;5050502;28;20044;-73
2022/12/17 19:41:15;;;;;;;61.33;39.38;;;-0.90;99.90;;;;;;5043244;28;20412;-73
2022/12/17 19:43:42;;;;;;;62.83;39.47;;;-0.90;99.90;;;;;;5044258;28;20041;-73
2022/12/17 19:46:11;;;;;;;67.18;40.35;;;-0.90;99.90;;;;;;5056420;28;20713;-74
2022/12/17 19:48:39;;;;;;;67.18;40.70;;;-0.90;99.90;;;;;;5043037;28;20094;-71
2022/12/17 19:51:05;;;;;;;66.22;40.85;;;-0.40;99.90;;;;;;5049596;28;20045;-73
2022/12/17 19:53:32;;;;;;;74.97;42.40;;;-0.50;99.90;;;;;;5050529;28;20091;-73
2022/12/17 19:56:20;;;;;;;60.88;35.65;;;-0.40;99.90;;;;;;5047614;28;20052;-73
2022/12/17 19:58:52;;;;;;;64.40;39.60;;;-0.70;99.90;;;;;;5048672;28;20159;-71
2022/12/17 20:01:32;;;;;;;64.82;36.97;;;0.10;99.90;;;;;;5040886;28;20125;-73
2022/12/17 20:03:58;;;;;;;62.83;38.63;;;-0.70;99.90;;;;;;5044690;28;20337;-72
2022/12/17 20:06:26;;;;;;;76.13;44.20;;;1.10;99.90;;;;;;5045356;28;20758;-74
2022/12/17 20:08:53;;;;;;;72.53;43.35;;;0.90;99.90;;;;;;5044768;28;20063;-73
2022/12/17 20:11:31;;;;;;;72.05;43.03;;;-0.60;99.90;;;;;;5043710;28;20102;-73
2022/12/17 20:14:07;;;;;;;71.75;41.70;;;0.70;99.90;;;;;;5043304;28;20693;-74
2022/12/17 20:16:42;;;;;;;66.68;43.10;;;-0.70;99.90;;;;;;5050217;28;20768;-72
2022/12/17 20:19:12;;;;;;;74.10;43.72;;;-0.70;99.90;;;;;;5048417;28;20386;-73
2022/12/17 20:21:38;;;;;;;74.65;41.00;;;-0.70;99.90;;;;;;5065711;28;20484;-72
2022/12/17 20:24:04;;;;;;;66.35;43.13;;;-0.20;99.90;;;;;;5051257;28;20041;-73
2022/12/17 20:26:30;;;;;;;74.68;44.80;;;-0.80;99.90;;;;;;5046320;28;20045;-72
2022/12/17 20:28:57;;;;;;;74.15;42.63;;;0.60;99.90;;;;;;5038611;28;20083;-72
2022/12/17 20:31:24;;;;;;;75.45;44.03;;;-0.30;99.90;;;;;;5046201;28;20059;-74
2022/12/17 20:33:50;;;;;;;74.32;44.08;;;-0.80;99.90;;;;;;5046882;28;20044;-73
2022/12/17 20:36:17;;;;;;;68.22;42.75;;;-0.90;99.90;;;;;;5047289;28;20055;-73
2022/12/17 20:38:43;;;;;;;68.57;41.83;;;-0.90;99.90;;;;;;5055348;28;20048;-73
2022/12/17 20:41:14;;;;;;;67.88;39.47;;;0.40;99.90;;;;;;5049235;28;20075;-74
2022/12/17 20:43:41;;;;;;;73.20;40.65;;;-0.90;99.90;;;;;;5052562;28;20044;-72
2022/12/17 20:46:08;;;;;;;70.30;41.53;;;-0.90;99.90;;;;;;5048382;28;20163;-75
2022/12/17 20:48:35;;;;;;;78.35;43.53;;;-0.90;99.90;;;;;;5044365;28;20554;-72
2022/12/17 20:51:10;;;;;;;72.85;44.03;;;-0.90;99.90;;;;;;5042233;28;20608;-73
2022/12/17 20:53:36;;;;;;;64.28;40.08;;;-0.30;99.90;;;;;;5046262;28;20052;-72
2022/12/17 20:56:05;;;;;;;63.20;40.83;;;-0.90;99.90;;;;;;5039603;28;20790;-72
2022/12/17 20:58:31;;;;;;;62.38;39.13;;;-1.00;99.90;;;;;;5037717;28;20053;-72
2022/12/17 21:01:02;;;;;;;70.25;40.78;;;-1.00;99.90;;;;;;5039579;28;20417;-74
2022/12/17 21:03:28;;;;;;;82.20;47.45;;;-1.10;99.90;;;;;;5041649;28;20503;-72
2022/12/17 21:05:54;;;;;;;78.65;47.42;;;-1.20;99.90;;;;;;5037355;28;20040;-75
2022/12/17 21:08:19;;;;;;;83.65;48.28;;;-1.20;99.90;;;;;;5047394;28;20831;-73
2022/12/17 21:10:45;;;;;;;68.68;43.47;;;-0.70;99.90;;;;;;5040048;28;20404;-74
2022/12/17 21:13:29;;;;;;;73.25;42.25;;;-0.70;99.90;;;;;;5045537;28;20119;-73
2022/12/17 21:16:00;;;;;;;67.85;40.88;;;-1.20;99.90;;;;;;5045997;28;20177;-73
2022/12/17 21:18:28;;;;;;;60.65;36.53;;;-1.20;99.90;;;;;;5037839;28;20121;-74
2022/12/17 21:21:00;;;;;;;63.78;41.95;;;0.50;99.90;;;;;;5052172;28;20125;-75
2022/12/17 21:23:27;;;;;;;72.55;45.08;;;-0.20;99.90;;;;;;5054726;28;20087;-74
2022/12/17 21:26:19;;;;;;;73.90;39.53;;;-1.30;99.90;;;;;;5038220;28;20045;-73
2022/12/17 21:28:47;;;;;;;83.05;46.58;;;-1.20;99.90;;;;;;5037359;28;20137;-72
2022/12/17 21:31:19;;;;;;;71.95;45.40;;;-1.20;99.90;;;;;;5053825;28;20056;-73
2022/12/17 21:33:48;;;;;;;73.90;41.15;;;-1.20;99.90;;;;;;5040711;28;20056;-73
2022/12/17 21:36:15;;;;;;;78.60;44.97;;;-0.80;99.90;;;;;;5047599;28;20052;-74
2022/12/17 21:38:41;;;;;;;68.57;41.80;;;0.30;99.90;;;;;;5035807;28;20053;-73
2022/12/17 21:41:10;;;;;;;72.20;42.45;;;-1.30;99.90;;;;;;5052661;28;20524;-74
2022/12/17 21:43:36;;;;;;;68.25;42.53;;;-1.30;99.90;;;;;;5053948;28;20044;-72
2022/12/17 21:46:03;;;;;;;70.72;39.80;;;-1.30;99.90;;;;;;5070397;28;20067;-71
2022/12/17 21:48:29;;;;;;;78.32;42.70;;;-1.30;99.90;;;;;;5046899;28;20148;-72
2022/12/17 21:50:54;;;;;;;71.55;42.17;;;-0.30;99.90;;;;;;5040400;28;20591;-75
2022/12/17 21:53:20;;;;;;;73.20;41.80;;;-0.30;99.90;;;;;;5055663;28;20843;-73
2022/12/17 21:55:47;;;;;;;77.53;46.05;;;-1.30;99.90;;;;;;5039587;28;20053;-73
2022/12/17 21:58:14;;;;;;;83.03;47.03;;;-1.20;99.90;;;;;;5035276;28;20138;-74
2022/12/17 22:00:41;;;;;;;80.07;46.35;;;-1.20;99.90;;;;;;5049772;28;20041;-74
2022/12/17 22:03:07;;;;;;;81.22;46.28;;;-0.50;99.90;;;;;;5056538;28;20040;-72
2022/12/17 22:05:36;;;;;;;76.88;43.75;;;-1.20;99.90;;;;;;5051477;28;20056;-72
2022/12/17 22:08:02;;;;;;;68.85;43.25;;;-1.20;99.90;;;;;;5041532;28;20133;-71
2022/12/17 22:10:28;;;;;;;71.32;42.25;;;-1.20;99.90;;;;;;5035302;28;20048;-72
2022/12/17 22:15:39;;;;;;;77.13;42.65;;;0.00;99.90;;;;;;5045076;28;20055;-73
2022/12/17 22:18:05;;;;;;;72.85;40.70;;;-1.20;99.90;;;;;;5038262;28;20409;-72
2022/12/17 22:20:31;;;;;;;69.80;37.70;;;-1.20;99.90;;;;;;5050084;28;20916;-71
2022/12/17 22:22:57;;;;;;;65.63;36.05;;;0.40;99.90;;;;;;5055670;28;20044;-73
2022/12/17 22:25:23;;;;;;;60.03;34.97;;;-1.00;99.90;;;;;;5042407;28;20104;-72
2022/12/17 22:27:48;;;;;;;62.40;36.08;;;-0.20;99.90;;;;;;5037586;28;20743;-74
2022/12/17 22:33:02;;;;;;;67.53;37.50;;;-1.40;99.90;;;;;;5034672;28;20111;-73
2022/12/17 22:35:36;;;;;;;67.47;35.65;;;-1.50;99.90;;;;;;5048427;28;20055;-72
2022/12/17 22:38:04;;;;;;;59.88;36.00;;;0.10;99.90;;;;;;5034514;28;20056;-72
2022/12/17 22:40:32;;;;;;;55.63;34.33;;;-1.10;99.90;;;;;;5052677;28;20056;-72
2022/12/17 22:45:42;;;;;;;65.63;37.28;;;-1.80;99.90;;;;;;5043755;28;20110;-73
2022/12/17 22:48:09;;;;;;;68.85;39.22;;;-1.80;99.90;;;;;;5050415;28;20049;-74
2022/12/17 22:50:35;;;;;;;62.88;35.58;;;-1.80;99.90;;;;;;5047626;28;20092;-73
2022/12/17 22:53:01;;;;;;;65.65;37.10;;;-0.50;99.90;;;;;;5057729;28;20075;-72
2022/12/17 22:55:27;;;;;;;61.72;36.97;;;-1.60;99.90;;;;;;5057571;28;20178;-72
2022/12/17 22:57:53;;;;;;;54.55;33.08;;;-1.60;99.90;;;;;;5040420;28;20112;-72
2022/12/17 23:00:33;;;;;;;62.97;36.97;;;-1.60;99.90;;;;;;5041724;28;20135;-74
2022/12/17 23:02:59;;;;;;;60.78;33.05;;;-1.50;99.90;;;;;;5040464;28;20441;-71
2022/12/17 23:05:26;;;;;;;70.18;35.45;;;-0.10;99.90;;;;;;5043913;28;20131;-74
2022/12/17 23:07:52;;;;;;;58.25;32.60;;;-0.70;99.90;;;;;;5047030;28;20115;-72
2022/12/17 23:10:19;;;;;;;73.38;36.22;;;-1.00;99.90;;;;;;5043007;28;20077;-73
2022/12/17 23:12:51;;;;;;;62.95;35.10;;;-1.80;99.90;;;;;;5040215;28;20109;-74
2022/12/17 23:15:23;;;;;;;61.97;32.50;;;-1.50;99.90;;;;;;5045644;28;20087;-72
2022/12/17 23:17:49;;;;;;;65.32;37.35;;;-1.50;99.90;;;;;;5048607;28;20052;-73
2022/12/17 23:20:15;;;;;;;65.20;37.25;;;-1.50;99.90;;;;;;5046125;28;20154;-70
2022/12/17 23:22:41;;;;;;;58.63;34.58;;;-1.50;99.90;;;;;;5046916;28;20053;-72
2022/12/17 23:25:07;;;;;;;65.13;37.97;;;-1.50;99.90;;;;;;5060111;28;20118;-73
2022/12/17 23:27:33;;;;;;;62.40;35.75;;;-1.50;99.90;;;;;;5047878;28;20060;-71
2022/12/17 23:29:59;;;;;;;62.67;35.97;;;-0.70;99.90;;;;;;5051182;28;20044;-75
2022/12/17 23:32:25;;;;;;;57.58;34.88;;;-1.60;99.90;;;;;;5047948;28;20037;-74
2022/12/17 23:34:51;;;;;;;64.97;34.28;;;-0.40;99.90;;;;;;5045727;28;20044;-72
2022/12/17 23:37:16;;;;;;;55.25;32.28;;;-1.70;99.90;;;;;;5046695;28;20048;-71
2022/12/17 23:39:42;;;;;;;57.13;34.13;;;-1.70;99.90;;;;;;5032881;28;20114;-72
2022/12/17 23:42:08;;;;;;;62.63;34.08;;;-1.70;99.90;;;;;;5047906;28;20043;-72
2022/12/17 23:44:33;;;;;;;59.15;34.20;;;-1.70;99.90;;;;;;5046478;28;20045;-70
2022/12/17 23:46:59;;;;;;;55.28;34.28;;;;;;;;;;5044630;28;20045;-72
2022/12/17 23:49:25;;;;;;;58.90;34.65;;;-1.80;99.90;;;;;;5049541;28;20045;-71
2022/12/17 23:51:51;;;;;;;64.30;35.97;;;-1.80;99.90;;;;;;5049240;28;20059;-72
2022/12/17 23:54:16;;;;;;;59.05;34.50;;;-1.70;99.90;;;;;;5050831;28;20076;-74
2022/12/17 23:56:44;;;;;;;57.10;33.28;;;-1.80;99.90;;;;;;5053492;28;20060;-73
2022/12/17 23:59:10;;;;;;;59.13;32.30;;;-1.80;99.90;;;;;;5050673;28;20040;-74
